Pino Ladra — ECGJ — position and weather

sailwx.info

Track history (hours):
 
Tides and Currents Weather Stations Pressure Air Temp Water Temp Dewpoint Dewpoint Depression Visibility Wind Speed Wind Dir Waves Ship Positions

Pino Ladra

Last reported at 2017-Mar-24 16:22 UTC. Time now 2017-Mar-26 12:59 UTC.
Position N 43°41' W 007°36'.

Length 32 m; draft 7.4 m.

Type: Fishing. MMSI: 224134550.

Date/timePositionNaut miles runAvg speedWind from/ knotsBaromVisibWave heightAir tempDewpointWater temp
2017-Mar-24 16:22N 43°41' W 007°36'0 0.0
2017-Mar-24 15:34N 43°41' W 007°36'0 0.0
2017-Mar-24 14:31N 43°41' W 007°36'0 0.1
2017-Mar-24 13:33N 43°41' W 007°36'2 2.4
2017-Mar-24 12:33N 43°43' W 007°36'7 6.6
2017-Mar-24 11:32N 43°50' W 007°37'6 0.2
2017-Mar-23 09:33N 43°51' W 007°29'4 3.7
2017-Mar-23 08:33N 43°48' W 007°26'3 0.1
2017-Mar-22 09:32N 43°46' W 007°29'7 1.0
2017-Mar-22 02:09N 43°54' W 007°28'2 2.4
2017-Mar-22 01:17N 43°53' W 007°31'2 3.2
2017-Mar-22 00:33N 43°51' W 007°30'3 3.1
2017-Mar-21 23:30N 43°49' W 007°26'2 0.3
2017-Mar-21 16:03N 43°47' W 007°28'1 1.7
2017-Mar-21 15:33N 43°46' W 007°28'3 2.1
2017-Mar-21 14:10N 43°49' W 007°26'3 3.2
2017-Mar-21 13:22N 43°51' W 007°29'7 0.6
2017-Mar-21 03:16N 43°57' W 007°30'5 2.8
2017-Mar-21 01:30N 43°52' W 007°31'3 3.3
2017-Mar-21 00:33N 43°50' W 007°28'2 0.2
2017-Mar-20 12:27N 43°48' W 007°27'3 3.3
2017-Mar-20 11:28N 43°50' W 007°29'1 0.2
2017-Mar-20 02:27N 43°52' W 007°30'3 3.1
2017-Mar-20 01:33N 43°49' W 007°27'7 3.3
2017-Mar-19 23:33N 43°44' W 007°33'4 0.1
2017-Mar-17 20:05N 43°41' W 007°36'2 3.7
2017-Mar-17 19:33N 43°43' W 007°35'9 2.7
2017-Mar-17 16:22N 43°47' W 007°26'2 2.8
2017-Mar-17 15:31N 43°49' W 007°28'4 4.0
2017-Mar-17 14:33N 43°53' W 007°30'1 0.4
2017-Mar-17 13:15N 43°53' W 007°31'3 3.8
2017-Mar-17 12:33N 43°50' W 007°29'3 0.9
2017-Mar-17 09:32N 43°48' W 007°26'3 3.2
2017-Mar-17 08:33N 43°51' W 007°29'  
Track history (hours):
 
Tides and Currents Weather Stations Pressure Air Temp Water Temp Dewpoint Dewpoint Depression Visibility Wind Speed Wind Dir Waves Ship Positions

Pino Ladra

Last reported at 2017-Mar-24 16:22 UTC. Time now 2017-Mar-26 12:59 UTC.
Position N 43°41' W 007°36'.

Length 32 m; draft 7.4 m.

Type: Fishing. MMSI: 224134550.

Date/timePositionNaut miles runAvg speedWind from/ knotsBaromVisibWave heightAir tempDewpointWater temp
2017-Mar-24 16:22N 43°41' W 007°36'0 0.0
2017-Mar-24 15:34N 43°41' W 007°36'0 0.0
2017-Mar-24 14:31N 43°41' W 007°36'0 0.1
2017-Mar-24 13:33N 43°41' W 007°36'2 2.4
2017-Mar-24 12:33N 43°43' W 007°36'7 6.6
2017-Mar-24 11:32N 43°50' W 007°37'6 0.2
2017-Mar-23 09:33N 43°51' W 007°29'4 3.7
2017-Mar-23 08:33N 43°48' W 007°26'3 0.1
2017-Mar-22 09:32N 43°46' W 007°29'7 1.0
2017-Mar-22 02:09N 43°54' W 007°28'2 2.4
2017-Mar-22 01:17N 43°53' W 007°31'2 3.2
2017-Mar-22 00:33N 43°51' W 007°30'3 3.1
2017-Mar-21 23:30N 43°49' W 007°26'2 0.3
2017-Mar-21 16:03N 43°47' W 007°28'1 1.7
2017-Mar-21 15:33N 43°46' W 007°28'3 2.1
2017-Mar-21 14:10N 43°49' W 007°26'3 3.2
2017-Mar-21 13:22N 43°51' W 007°29'7 0.6
2017-Mar-21 03:16N 43°57' W 007°30'5 2.8
2017-Mar-21 01:30N 43°52' W 007°31'3 3.3
2017-Mar-21 00:33N 43°50' W 007°28'2 0.2
2017-Mar-20 12:27N 43°48' W 007°27'3 3.3
2017-Mar-20 11:28N 43°50' W 007°29'1 0.2
2017-Mar-20 02:27N 43°52' W 007°30'3 3.1
2017-Mar-20 01:33N 43°49' W 007°27'7 3.3
2017-Mar-19 23:33N 43°44' W 007°33'4 0.1
2017-Mar-17 20:05N 43°41' W 007°36'2 3.7
2017-Mar-17 19:33N 43°43' W 007°35'9 2.7
2017-Mar-17 16:22N 43°47' W 007°26'2 2.8
2017-Mar-17 15:31N 43°49' W 007°28'4 4.0
2017-Mar-17 14:33N 43°53' W 007°30'1 0.4
2017-Mar-17 13:15N 43°53' W 007°31'3 3.8
2017-Mar-17 12:33N 43°50' W 007°29'3 0.9
2017-Mar-17 09:32N 43°48' W 007°26'3 3.2
2017-Mar-17 08:33N 43°51' W 007°29'  

Dump ship's entire track history